Winchester, Nevada
Current Conditions -  °F | °C
As of 6:56 PM on Sunday 23 Nov 2014 (Local Time) from KLAS Reporting Station
Scattered Clouds Scattered Clouds  
Wind Chill: 54°   Ceiling: Unl
Heat Index: 54°   Visibility: 10mi
Dew Point: 11°   Wind: 8mph
Humidity: 18%   Direction: 250°WSW
Pressure: 30.18"   Gusts: NA
Location:  36.13°N, 115.11°W
Report Text: KLAS 240256Z 25007KT 10SM SCT180 SCT250 12/M12 A3018 RMK AO2 SLP216 T01221117 53001 $
Loading
Personal Weather Stations






























Interactive Weather Map New forecast layout! Learn more

10-Day Weather Forecast

Advertisements
Track Severe Weather on mobile